createdAt,value
2018-07-07T00:01:02.834Z,101617.86
2018-07-07T00:03:31.190Z,101620.05
2018-07-07T00:05:59.571Z,101621.88
2018-07-07T00:08:27.979Z,101619.40
2018-07-07T00:10:58.391Z,101624.08
2018-07-07T00:13:26.762Z,101626.27
2018-07-07T00:15:55.128Z,101630.54
2018-07-07T00:18:23.472Z,101627.81
2018-07-07T00:20:51.945Z,101621.14
2018-07-07T00:23:20.262Z,101621.19
2018-07-07T00:25:48.647Z,101622.73
2018-07-07T00:28:17.047Z,101625.76
2018-07-07T00:30:45.388Z,101624.28
2018-07-07T00:33:13.740Z,101619.96
2018-07-07T00:35:42.116Z,101622.99
2018-07-07T00:38:10.468Z,101625.83
2018-07-07T00:40:38.831Z,101630.19
2018-07-07T00:43:07.156Z,101627.52
2018-07-07T00:45:35.543Z,101633.01
2018-07-07T00:48:03.879Z,101633.52
2018-07-07T00:50:32.263Z,101635.88
2018-07-07T00:53:00.625Z,101635.88
2018-07-07T00:55:29.720Z,101631.62
2018-07-07T00:57:58.036Z,101632.64
2018-07-07T01:00:36.484Z,101633.31
2018-07-07T01:03:04.924Z,101639.02
2018-07-07T01:05:37.243Z,101635.02
2018-07-07T01:08:05.848Z,101635.38
2018-07-07T01:10:34.390Z,101636.56
2018-07-07T01:13:02.870Z,101632.60
2018-07-07T01:15:31.217Z,101634.95
2018-07-07T01:17:59.548Z,101639.95
2018-07-07T01:20:27.896Z,101643.63
2018-07-07T01:22:56.248Z,101641.83
2018-07-07T01:25:24.626Z,101642.02
2018-07-07T01:27:52.977Z,101641.00
2018-07-07T01:30:21.412Z,101643.02
2018-07-07T01:32:49.830Z,101639.52
2018-07-07T01:35:18.404Z,101641.32
2018-07-07T01:37:46.907Z,101638.50
2018-07-07T01:40:15.259Z,101645.72
2018-07-07T01:42:43.595Z,101637.25
2018-07-07T01:45:11.989Z,101637.05
2018-07-07T01:47:40.354Z,101633.75
2018-07-07T01:50:08.896Z,101635.45
2018-07-07T01:52:37.273Z,101635.95
2018-07-07T01:55:05.701Z,101635.25
2018-07-07T01:57:34.080Z,101633.09
2018-07-07T02:00:02.428Z,101632.73
2018-07-07T02:02:30.771Z,101638.89
2018-07-07T02:04:59.137Z,101633.56
2018-07-07T02:07:27.486Z,101634.11
2018-07-07T02:09:55.813Z,101628.62
2018-07-07T02:12:24.180Z,101645.80
2018-07-07T02:14:52.500Z,101638.15
2018-07-07T02:17:20.820Z,101642.81
2018-07-07T02:19:49.144Z,101639.36
2018-07-07T02:22:22.298Z,101641.05
2018-07-07T02:24:51.640Z,101642.70
2018-07-07T02:27:20.593Z,101639.87
2018-07-07T02:29:49.265Z,101640.73
2018-07-07T02:32:17.635Z,101640.89
2018-07-07T02:34:46.455Z,101642.42
2018-07-07T02:37:14.940Z,101638.58
2018-07-07T02:39:43.280Z,101637.63
2018-07-07T02:42:11.707Z,101636.62
2018-07-07T02:44:40.026Z,101639.79
2018-07-07T02:47:08.388Z,101638.81
2018-07-07T02:49:36.733Z,101636.49
2018-07-07T02:52:05.101Z,101635.35
2018-07-07T02:54:33.402Z,101642.02
2018-07-07T02:57:01.852Z,101636.37
2018-07-07T02:59:30.314Z,101636.75
2018-07-07T03:01:58.825Z,101645.38
2018-07-07T03:04:27.202Z,101646.08
2018-07-07T03:06:55.553Z,101641.25
2018-07-07T03:09:24.172Z,101644.62
2018-07-07T03:11:52.524Z,101653.31
2018-07-07T03:14:20.879Z,101646.99
2018-07-07T03:16:49.420Z,101650.48
2018-07-07T03:19:17.768Z,101646.52
2018-07-07T03:21:46.140Z,101647.36
2018-07-07T03:24:14.504Z,101655.85
2018-07-07T03:26:42.862Z,101649.88
2018-07-07T03:29:11.217Z,101661.25
2018-07-07T03:31:39.505Z,101655.30
2018-07-07T03:34:07.869Z,101655.64
2018-07-07T03:36:36.300Z,101659.94
2018-07-07T03:39:05.908Z,101664.41
2018-07-07T03:41:34.281Z,101663.75
2018-07-07T03:44:02.699Z,101672.72
2018-07-07T03:46:31.045Z,101673.73
2018-07-07T03:48:59.413Z,101674.08
2018-07-07T03:51:27.768Z,101676.42
2018-07-07T03:53:56.157Z,101678.26
2018-07-07T03:56:24.482Z,101679.74
2018-07-07T03:58:53.096Z,101685.06
2018-07-07T04:01:21.387Z,101688.59
2018-07-07T04:03:49.761Z,101689.57
2018-07-07T04:06:18.112Z,101688.27
2018-07-07T04:08:46.439Z,101687.11
2018-07-07T04:11:14.816Z,101690.95
2018-07-07T04:13:43.189Z,101695.42
2018-07-07T04:16:11.572Z,101699.77
2018-07-07T04:18:39.889Z,101698.10
2018-07-07T04:21:08.257Z,101701.61
2018-07-07T04:23:36.724Z,101698.95
2018-07-07T04:26:05.083Z,101708.11
2018-07-07T04:28:33.430Z,101712.43
2018-07-07T04:31:01.822Z,101709.95
2018-07-07T04:33:30.193Z,101713.92
2018-07-07T04:35:58.583Z,101704.41
2018-07-07T04:38:26.920Z,101703.38
2018-07-07T04:40:55.253Z,101694.20
2018-07-07T04:43:23.616Z,101700.17
2018-07-07T04:45:52.514Z,101707.64
2018-07-07T04:48:20.831Z,101710.80
2018-07-07T04:50:49.183Z,101711.72
2018-07-07T04:53:17.594Z,101714.80
2018-07-07T04:55:45.917Z,101715.16
2018-07-07T04:58:14.234Z,101720.73
2018-07-07T05:00:42.571Z,101721.66
2018-07-07T05:03:10.906Z,101721.09
2018-07-07T05:05:39.687Z,101722.60
2018-07-07T05:08:08.121Z,101732.88
2018-07-07T05:10:36.517Z,101725.00
2018-07-07T05:13:04.876Z,101723.78
2018-07-07T05:15:33.295Z,101730.30
2018-07-07T05:18:01.576Z,101730.58
2018-07-07T05:20:29.967Z,101736.89
2018-07-07T05:22:58.316Z,101737.10
2018-07-07T05:25:26.660Z,101728.22
2018-07-07T05:27:55.006Z,101736.98
2018-07-07T05:30:23.395Z,101735.67
2018-07-07T05:32:51.863Z,101743.42
2018-07-07T05:35:20.205Z,101734.64
2018-07-07T05:37:48.619Z,101743.70
2018-07-07T05:40:17.005Z,101748.29
2018-07-07T05:42:45.365Z,101753.02
2018-07-07T05:45:14.103Z,101754.30
2018-07-07T05:47:42.541Z,101752.73
2018-07-07T05:50:10.875Z,101753.17
2018-07-07T05:52:39.306Z,101757.94
2018-07-07T05:55:07.616Z,101750.95
2018-07-07T05:57:36.374Z,101757.75
2018-07-07T06:00:05.009Z,101760.86
2018-07-07T06:02:33.384Z,101754.72
2018-07-07T06:05:01.713Z,101761.79
2018-07-07T06:07:30.053Z,101754.98
2018-07-07T06:09:58.378Z,101761.61
2018-07-07T06:12:26.736Z,101760.80
2018-07-07T06:14:55.145Z,101762.14
2018-07-07T06:17:23.531Z,101759.03
2018-07-07T06:19:51.917Z,101763.29
2018-07-07T06:22:20.297Z,101764.41
2018-07-07T06:24:48.678Z,101758.32
2018-07-07T06:27:17.034Z,101758.09
2018-07-07T06:29:45.358Z,101756.02
2018-07-07T06:32:13.696Z,101764.23
2018-07-07T06:34:42.100Z,101762.47
2018-07-07T06:37:10.453Z,101754.52
2018-07-07T06:39:38.940Z,101758.81
2018-07-07T06:42:07.308Z,101756.84
2018-07-07T06:44:35.666Z,101753.05
2018-07-07T06:47:04.077Z,101754.16
2018-07-07T06:49:32.427Z,101757.84
2018-07-07T06:52:00.727Z,101753.27
2018-07-07T06:54:29.064Z,101758.08
2018-07-07T06:56:57.449Z,101750.33
2018-07-07T06:59:25.826Z,101753.91
2018-07-07T07:01:54.175Z,101755.80
2018-07-07T07:04:22.526Z,101756.49
2018-07-07T07:06:50.891Z,101762.64
2018-07-07T07:09:19.269Z,101764.29
2018-07-07T07:11:47.602Z,101762.21
2018-07-07T07:14:15.939Z,101763.42
2018-07-07T07:16:44.328Z,101768.23
2018-07-07T07:19:13.195Z,101761.53
2018-07-07T07:21:41.769Z,101767.65
2018-07-07T07:24:10.154Z,101772.66
2018-07-07T07:26:38.495Z,101770.42
2018-07-07T07:29:07.229Z,101771.12
2018-07-07T07:31:35.567Z,101768.19
2018-07-07T07:34:03.939Z,101770.44
2018-07-07T07:36:44.596Z,101771.12
2018-07-07T07:39:13.131Z,101770.44
2018-07-07T07:41:41.685Z,101773.94
2018-07-07T07:44:10.103Z,101775.58
2018-07-07T07:46:38.480Z,101769.41
2018-07-07T07:49:07.437Z,101769.09
2018-07-07T07:51:36.247Z,101767.70
2018-07-07T07:54:04.598Z,101774.71
2018-07-07T07:56:33.057Z,101774.58
2018-07-07T07:59:01.448Z,101779.07
2018-07-07T08:01:32.857Z,101778.17
2018-07-07T08:04:01.193Z,101775.84
2018-07-07T08:06:29.533Z,101777.30
2018-07-07T08:08:57.881Z,101778.64
2018-07-07T08:11:26.328Z,101773.51
2018-07-07T08:13:54.690Z,101776.19
2018-07-07T08:16:22.997Z,101781.45
2018-07-07T08:18:51.317Z,101775.58
2018-07-07T08:21:19.648Z,101777.05
2018-07-07T08:23:48.013Z,101777.82
2018-07-07T08:26:16.366Z,101777.03
2018-07-07T08:28:44.728Z,101774.52
2018-07-07T08:31:13.068Z,101773.17
2018-07-07T08:33:41.480Z,101778.36
2018-07-07T08:36:09.781Z,101771.86
2018-07-07T08:38:38.118Z,101779.09
2018-07-07T08:41:06.491Z,101770.92
2018-07-07T08:43:34.800Z,101775.00
2018-07-07T08:46:03.182Z,101780.21
2018-07-07T08:48:38.067Z,101776.68
2018-07-07T08:51:06.593Z,101769.45
2018-07-07T08:53:35.004Z,101767.58
2018-07-07T08:56:03.386Z,101767.00
2018-07-07T08:58:31.776Z,101760.63
2018-07-07T09:01:00.122Z,101769.80
2018-07-07T09:03:28.568Z,101763.91
2018-07-07T09:05:56.939Z,101764.61
2018-07-07T09:08:25.328Z,101762.83
2018-07-07T09:10:53.668Z,101766.85
2018-07-07T09:13:22.031Z,101763.83
2018-07-07T09:15:50.484Z,101755.82
2018-07-07T09:18:18.855Z,101744.41
2018-07-07T09:20:47.262Z,101750.21
2018-07-07T09:23:15.658Z,101741.02
2018-07-07T09:25:44.024Z,101746.59
2018-07-07T09:28:12.411Z,101747.00
2018-07-07T09:30:40.763Z,101740.00
2018-07-07T09:33:09.178Z,101741.23
2018-07-07T09:35:37.577Z,101739.91
2018-07-07T09:38:05.965Z,101748.59
2018-07-07T09:40:34.370Z,101744.95
2018-07-07T09:43:02.710Z,101739.35
2018-07-07T09:45:31.065Z,101740.50
2018-07-07T09:47:59.419Z,101748.87
2018-07-07T09:50:27.748Z,101744.21
2018-07-07T09:52:56.111Z,101748.05
2018-07-07T09:55:24.458Z,101745.67
2018-07-07T09:57:52.808Z,101736.98
2018-07-07T10:00:26.538Z,101734.22
2018-07-07T10:02:54.913Z,101738.33
2018-07-07T10:05:23.279Z,101729.27
2018-07-07T10:07:51.872Z,101732.55
2018-07-07T10:10:20.231Z,101731.98
2018-07-07T10:12:48.604Z,101733.09
2018-07-07T10:15:16.993Z,101731.94
2018-07-07T10:17:45.367Z,101731.00
2018-07-07T10:20:13.776Z,101729.17
2018-07-07T10:22:42.140Z,101728.52
2018-07-07T10:25:10.507Z,101735.94
2018-07-07T10:27:38.876Z,101730.25
2018-07-07T10:30:07.334Z,101722.83
2018-07-07T10:32:35.810Z,101725.98
2018-07-07T10:35:04.143Z,101723.52
2018-07-07T10:37:32.608Z,101726.11
2018-07-07T10:40:00.899Z,101734.41
2018-07-07T10:42:29.251Z,101728.22
2018-07-07T10:44:57.566Z,101736.69
2018-07-07T10:47:25.969Z,101726.34
2018-07-07T10:49:54.295Z,101722.49
2018-07-07T10:52:22.617Z,101729.14
2018-07-07T10:54:50.987Z,101724.77
2018-07-07T10:57:19.369Z,101728.66
2018-07-07T10:59:47.716Z,101719.86
2018-07-07T11:02:16.046Z,101719.20
2018-07-07T11:04:44.447Z,101729.26
2018-07-07T11:07:12.803Z,101725.34
2018-07-07T11:09:41.275Z,101721.30
2018-07-07T11:12:09.771Z,101720.67
2018-07-07T11:14:38.040Z,101716.89
2018-07-07T11:17:06.493Z,101710.69
2018-07-07T11:19:34.995Z,101717.48
2018-07-07T11:22:03.362Z,101705.48
2018-07-07T11:24:31.714Z,101709.50
2018-07-07T11:27:00.064Z,101700.45
2018-07-07T11:29:28.586Z,101702.36
2018-07-07T11:31:56.919Z,101699.31
2018-07-07T11:34:25.246Z,101700.33
2018-07-07T11:36:53.617Z,101703.67
2018-07-07T11:39:22.003Z,101711.39
2018-07-07T11:41:50.369Z,101704.07
2018-07-07T11:44:18.767Z,101707.91
2018-07-07T11:46:47.142Z,101702.09
2018-07-07T11:49:15.506Z,101703.38
2018-07-07T11:51:43.850Z,101696.95
2018-07-07T11:54:12.241Z,101695.94
2018-07-07T11:56:40.591Z,101697.95
2018-07-07T11:59:09.033Z,101696.17
2018-07-07T12:01:37.485Z,101694.34
2018-07-07T12:04:05.881Z,101692.76
2018-07-07T12:06:34.252Z,101698.30
2018-07-07T12:09:02.617Z,101694.96
2018-07-07T12:11:31.050Z,101689.19
2018-07-07T12:13:59.341Z,101698.44
2018-07-07T12:16:27.777Z,101701.89
2018-07-07T12:18:56.119Z,101693.48
2018-07-07T12:21:27.434Z,101687.61
2018-07-07T12:23:55.764Z,101681.73
2018-07-07T12:26:24.145Z,101676.58
2018-07-07T12:28:52.503Z,101685.43
2018-07-07T12:31:20.966Z,101681.48
2018-07-07T12:33:49.339Z,101676.85
2018-07-07T12:36:17.880Z,101679.70
2018-07-07T12:38:46.195Z,101682.66
2018-07-07T12:41:14.532Z,101678.63
2018-07-07T12:43:42.908Z,101672.83
2018-07-07T12:46:11.217Z,101672.22
2018-07-07T12:48:39.587Z,101680.66
2018-07-07T12:51:07.955Z,101677.37
2018-07-07T12:53:36.313Z,101667.95
2018-07-07T12:56:04.899Z,101656.32
2018-07-07T12:58:33.248Z,101659.42
2018-07-07T13:01:01.636Z,101667.72
2018-07-07T13:03:30.005Z,101658.73
2018-07-07T13:05:58.423Z,101666.27
2018-07-07T13:08:27.017Z,101664.89
2018-07-07T13:10:55.397Z,101654.35
2018-07-07T13:13:23.852Z,101659.50
2018-07-07T13:15:52.389Z,101672.69
2018-07-07T13:18:20.723Z,101663.91
2018-07-07T13:20:49.168Z,101665.11
2018-07-07T13:23:17.830Z,101656.87
2018-07-07T13:25:46.210Z,101652.61
2018-07-07T13:28:14.557Z,101655.69
2018-07-07T13:30:42.987Z,101658.45
2018-07-07T13:33:11.378Z,101650.42
2018-07-07T13:35:39.758Z,101653.56
2018-07-07T13:38:08.124Z,101648.79
2018-07-07T13:40:36.603Z,101652.92
2018-07-07T13:43:04.987Z,101649.23
2018-07-07T13:45:33.352Z,101658.08
2018-07-07T13:48:01.757Z,101654.91
2018-07-07T13:50:30.147Z,101662.81
2018-07-07T13:52:58.631Z,101652.30
2018-07-07T13:55:27.328Z,101652.36
2018-07-07T13:57:55.719Z,101658.52
2018-07-07T14:00:24.046Z,101653.54
2018-07-07T14:02:52.428Z,101652.63
2018-07-07T14:05:20.803Z,101652.30
2018-07-07T14:07:49.152Z,101647.20
2018-07-07T14:10:17.509Z,101648.69
2018-07-07T14:12:45.899Z,101648.03
2018-07-07T14:15:14.246Z,101644.86
2018-07-07T14:17:42.631Z,101655.45
2018-07-07T14:20:11.085Z,101657.45
2018-07-07T14:22:39.431Z,101651.03
2018-07-07T14:25:07.816Z,101647.42
2018-07-07T14:27:36.172Z,101654.65
2018-07-07T14:30:04.941Z,101654.58
2018-07-07T14:32:33.327Z,101655.00
2018-07-07T14:35:01.690Z,101654.33
2018-07-07T14:37:29.986Z,101652.66
2018-07-07T14:40:00.457Z,101650.05
2018-07-07T14:42:44.746Z,101654.59
2018-07-07T14:45:16.431Z,101645.23
2018-07-07T14:47:46.160Z,101640.81
2018-07-07T14:50:15.025Z,101637.51
2018-07-07T14:52:43.763Z,101642.33
2018-07-07T14:55:12.602Z,101630.23
2018-07-07T14:57:41.346Z,101631.66
2018-07-07T15:00:09.756Z,101638.67
2018-07-07T15:02:38.080Z,101637.70
2018-07-07T15:05:07.255Z,101635.79
2018-07-07T15:07:35.737Z,101637.46
2018-07-07T15:12:55.475Z,101634.84
2018-07-07T15:15:23.926Z,101640.77
2018-07-07T15:17:52.696Z,101637.25
2018-07-07T15:20:21.042Z,101639.55
2018-07-07T15:22:49.459Z,101634.31
2018-07-07T15:25:17.809Z,101630.27
2018-07-07T15:27:46.145Z,101642.93
2018-07-07T15:30:14.529Z,101633.48
2018-07-07T15:32:42.869Z,101635.45
2018-07-07T15:35:11.310Z,101627.16
2018-07-07T15:37:39.727Z,101620.75
2018-07-07T15:40:08.148Z,101621.12
2018-07-07T15:42:36.535Z,101619.61
2018-07-07T15:45:05.125Z,101624.27
2018-07-07T15:47:33.524Z,101626.88
2018-07-07T15:50:01.932Z,101613.76
2018-07-07T15:52:30.271Z,101614.41
2018-07-07T15:54:58.663Z,101622.75
2018-07-07T15:57:26.993Z,101628.67
2018-07-07T15:59:55.415Z,101614.38
2018-07-07T16:02:23.735Z,101602.31
2018-07-07T16:04:52.094Z,101601.95
2018-07-07T16:07:20.555Z,101610.85
2018-07-07T16:09:48.981Z,101609.70
2018-07-07T16:12:17.307Z,101609.83
2018-07-07T16:14:46.112Z,101609.16
2018-07-07T16:17:14.468Z,101611.31
2018-07-07T16:19:42.828Z,101612.51
2018-07-07T16:22:11.199Z,101613.57
2018-07-07T16:24:39.589Z,101605.40
2018-07-07T16:27:07.971Z,101608.20
2018-07-07T16:29:36.339Z,101606.28
2018-07-07T16:32:04.816Z,101604.12
2018-07-07T16:34:33.238Z,101600.36
2018-07-07T16:37:01.821Z,101602.59
2018-07-07T16:39:30.184Z,101594.67
2018-07-07T16:41:58.575Z,101600.92
2018-07-07T16:44:27.484Z,101599.28
2018-07-07T16:46:56.133Z,101599.62
2018-07-07T16:49:24.502Z,101595.49
2018-07-07T16:51:53.187Z,101587.77
2018-07-07T16:54:22.536Z,101593.13
2018-07-07T16:56:51.325Z,101590.05
2018-07-07T16:59:19.735Z,101588.02
2018-07-07T17:01:49.204Z,101591.33
2018-07-07T17:04:17.603Z,101594.92
2018-07-07T17:06:45.978Z,101590.50
2018-07-07T17:09:14.300Z,101593.41
2018-07-07T17:11:42.676Z,101590.05
2018-07-07T17:14:11.909Z,101590.88
2018-07-07T17:16:42.834Z,101591.69
2018-07-07T17:19:12.344Z,101587.52
2018-07-07T17:21:40.944Z,101585.69
2018-07-07T17:24:09.348Z,101582.50
2018-07-07T17:26:37.743Z,101589.61
2018-07-07T17:29:06.466Z,101585.11
2018-07-07T17:31:35.041Z,101586.09
2018-07-07T17:34:03.546Z,101586.09
2018-07-07T17:36:31.897Z,101583.07
2018-07-07T17:39:01.220Z,101583.75
2018-07-07T17:41:29.614Z,101579.53
2018-07-07T17:43:58.078Z,101582.39
2018-07-07T17:46:26.611Z,101582.16
2018-07-07T17:48:55.073Z,101585.89
2018-07-07T17:51:23.453Z,101590.58
2018-07-07T17:53:51.827Z,101587.51
2018-07-07T17:56:20.194Z,101590.44
2018-07-07T17:58:48.619Z,101592.08
2018-07-07T18:01:16.968Z,101589.09
2018-07-07T18:03:45.674Z,101593.05
2018-07-07T18:06:14.153Z,101597.32
2018-07-07T18:08:42.509Z,101599.78
2018-07-07T18:11:10.898Z,101596.85
2018-07-07T18:13:39.352Z,101597.00
2018-07-07T18:16:07.779Z,101592.13
2018-07-07T18:18:36.272Z,101594.06
2018-07-07T18:21:04.700Z,101591.94
2018-07-07T18:23:33.076Z,101599.77
2018-07-07T18:26:01.697Z,101597.13
2018-07-07T18:28:30.060Z,101595.69
2018-07-07T18:30:58.444Z,101602.03
2018-07-07T18:33:26.804Z,101594.82
2018-07-07T18:35:55.200Z,101597.36
2018-07-07T18:38:23.592Z,101598.12
2018-07-07T18:40:51.933Z,101603.54
2018-07-07T18:43:21.273Z,101603.02
2018-07-07T18:45:49.677Z,101607.31
2018-07-07T18:48:18.105Z,101606.92
2018-07-07T18:50:46.414Z,101602.69
2018-07-07T18:53:14.769Z,101604.16
2018-07-07T18:55:43.122Z,101603.99
2018-07-07T18:58:11.490Z,101609.59
2018-07-07T19:00:39.867Z,101608.90
2018-07-07T19:03:08.196Z,101606.53
2018-07-07T19:05:36.527Z,101611.83
2018-07-07T19:08:04.956Z,101611.41
2018-07-07T19:10:33.380Z,101604.20
2018-07-07T19:13:01.750Z,101607.11
2018-07-07T19:15:30.213Z,101610.63
2018-07-07T19:17:59.305Z,101610.42
2018-07-07T19:21:36.020Z,101609.61
2018-07-07T19:24:09.641Z,101608.88
2018-07-07T19:26:43.496Z,101607.13
2018-07-07T19:29:12.410Z,101617.47
2018-07-07T19:32:43.843Z,101614.30
2018-07-07T19:35:17.850Z,101620.16
2018-07-07T19:37:46.234Z,101628.95
2018-07-07T19:40:14.577Z,101634.02
2018-07-07T19:42:42.993Z,101628.12
2018-07-07T19:45:11.503Z,101637.00
2018-07-07T19:47:39.865Z,101637.18
2018-07-07T19:50:08.310Z,101640.19
2018-07-07T19:52:36.793Z,101647.37
2018-07-07T19:55:05.221Z,101649.52
2018-07-07T19:57:33.551Z,101654.34
2018-07-07T20:00:02.041Z,101652.86
2018-07-07T20:02:30.445Z,101663.57
2018-07-07T20:04:58.795Z,101657.67
2018-07-07T20:07:27.180Z,101661.03
2018-07-07T20:09:55.500Z,101666.88
2018-07-07T20:12:23.853Z,101671.51
2018-07-07T20:14:52.237Z,101675.67
2018-07-07T20:17:31.962Z,101665.61
2018-07-07T20:20:36.905Z,101671.11
2018-07-07T20:23:06.796Z,101662.73
2018-07-07T20:25:35.261Z,101663.30
2018-07-07T20:28:09.058Z,101664.41
2018-07-07T20:30:37.545Z,101666.14
2018-07-07T20:33:06.686Z,101666.92
2018-07-07T20:35:35.089Z,101665.88
2018-07-07T20:38:03.525Z,101680.98
2018-07-07T20:40:31.908Z,101677.02
2018-07-07T20:43:00.384Z,101675.45
2018-07-07T20:45:28.977Z,101676.73
2018-07-07T20:47:57.331Z,101681.64
2018-07-07T20:50:25.667Z,101689.11
2018-07-07T20:52:54.185Z,101678.16
2018-07-07T20:55:22.512Z,101683.38
2018-07-07T20:57:50.855Z,101681.13
2018-07-07T21:00:19.208Z,101687.17
2018-07-07T21:02:47.569Z,101691.42
2018-07-07T21:05:15.912Z,101691.70
2018-07-07T21:07:44.321Z,101691.12
2018-07-07T21:10:12.772Z,101691.88
2018-07-07T21:12:41.234Z,101692.62
2018-07-07T21:15:09.698Z,101690.53
2018-07-07T21:17:38.077Z,101689.25
2018-07-07T21:20:06.888Z,101691.66
2018-07-07T21:22:35.377Z,101687.91
2018-07-07T21:25:03.731Z,101694.31
2018-07-07T21:27:32.089Z,101694.74
2018-07-07T21:30:00.448Z,101689.97
2018-07-07T21:32:28.806Z,101690.70
2018-07-07T21:34:57.626Z,101693.23
2018-07-07T21:37:26.112Z,101694.32
2018-07-07T21:39:54.456Z,101695.84
2018-07-07T21:42:22.812Z,101706.59
2018-07-07T21:44:52.227Z,101700.50
2018-07-07T21:47:20.572Z,101705.39
2018-07-07T21:49:48.952Z,101705.24
2018-07-07T21:52:17.316Z,101711.41
2018-07-07T21:54:45.699Z,101715.98
2018-07-07T21:57:19.151Z,101716.20
2018-07-07T21:59:47.565Z,101715.27
2018-07-07T22:02:21.229Z,101715.98
2018-07-07T22:04:54.844Z,101720.00
2018-07-07T22:07:28.628Z,101722.09
2018-07-07T22:09:56.977Z,101727.12
2018-07-07T22:12:25.367Z,101725.88
2018-07-07T22:14:53.718Z,101721.77
2018-07-07T22:17:22.084Z,101725.27
2018-07-07T22:19:50.422Z,101732.10
2018-07-07T22:22:18.837Z,101733.32
2018-07-07T22:24:47.177Z,101736.86
2018-07-07T22:27:16.021Z,101735.20
2018-07-07T22:29:44.356Z,101732.89
2018-07-07T22:32:17.985Z,101736.91
2018-07-07T22:34:46.349Z,101732.97
2018-07-07T22:37:14.775Z,101732.66
2018-07-07T22:39:44.088Z,101736.86
2018-07-07T22:42:14.706Z,101738.67
2018-07-07T22:44:44.092Z,101738.20
2018-07-07T22:47:12.450Z,101733.75
2018-07-07T22:49:40.765Z,101732.80
2018-07-07T22:52:10.039Z,101744.17
2018-07-07T22:54:38.427Z,101732.55
2018-07-07T22:57:06.896Z,101728.26
2018-07-07T22:59:35.351Z,101734.55
2018-07-07T23:02:03.745Z,101734.90
2018-07-07T23:04:32.083Z,101733.91
2018-07-07T23:07:00.512Z,101737.59
2018-07-07T23:09:28.861Z,101739.48
2018-07-07T23:11:57.233Z,101741.19
2018-07-07T23:14:25.807Z,101745.87
2018-07-07T23:16:58.586Z,101746.88
2018-07-07T23:19:27.685Z,101749.06
2018-07-07T23:21:56.595Z,101745.57
2018-07-07T23:24:24.970Z,101749.91
2018-07-07T23:26:53.467Z,101749.58
2018-07-07T23:29:21.814Z,101746.43
2018-07-07T23:31:50.178Z,101746.59
2018-07-07T23:34:18.599Z,101749.92
2018-07-07T23:36:46.950Z,101747.63
2018-07-07T23:39:15.348Z,101748.47
2018-07-07T23:41:43.789Z,101748.98
2018-07-07T23:44:12.138Z,101745.34
2018-07-07T23:46:40.488Z,101748.16
2018-07-07T23:49:08.846Z,101751.83
2018-07-07T23:51:37.342Z,101752.00
2018-07-07T23:54:05.708Z,101745.86
2018-07-07T23:56:34.094Z,101744.87
2018-07-07T23:59:02.429Z,101748.72
